Aeroporto :
LOGIN :

Iscrizione | Disclaimer

   EN    FR    IT 

 










Sommario :    VFR   VFR Marginale   IFR   IFR Intensivo   IFR Molto Intensivo
Visibilità : 
Base nubi : 
>= 8 km
>= 3000ft
5 / 8 km
1000 / 3000 ft
1500m / 5 km
500 / 1000 ft
800 / 1500m
200 / 500 ft
< 800m
< 200 ft
Simboli :   Temporali  Nebbia  Neve Forte  Precipitazioni Forti  Vento > 20 kt
SIGMETs :   Varie  Temporali  Ghiacco  Turbolenza  Onda orograficha  Ceneri Vulcaniche






- Altitudine del aeroporto : 502 ft
- Codice IATA : ORK


EICK - Cork

ULTIMO METAR :
  • 122300Z 27006KT 9999 FEW018 BKN180 04/02 Q1007 NOSIG

METARs OBSOLETI :
  • 122230Z 29009KT 9999 FEW030 BKN180 04/02 Q1007 NOSIG
  • 122200Z 29007KT 9999 FEW018 BKN045 BKN180 04/02 Q1008 NOSIG
  • 122130Z 29010KT 9999 FEW018 BKN045 BKN150 05/02 Q1008 NOSIG
  • 122100Z 29009KT 9999 FEW019 SCT045 BKN160 05/02 Q1008 NOSIG
  • 122030Z 29010KT 9999 FEW022 SCT050 BKN180 05/02 Q1008 NOSIG

TAF TAF EICK
Valido dal 12 a 18 ore il 13 a 18 ore UTC


121700Z 1218/1318 30008KT 9999 SCT025
BECMG 1309/1311 23015KT 4000 -RA BKN010 OVC020
BECMG 1311/1313 27012KT
BECMG 1315/1317 9999 BKN020



MetMap, La meteo Aeronautica in un colpo d'occhio ! - Copyright ORBIFLY Dicembre 2007 - Disclaimer

ORBIFLY MET'MAP TEAM :

Programmazione e sviluppo : Alexandra Zaïnal
Concezione e sviluppo : Baudouin d'Aumeries
Co-Programmazione e sviluppo : Marc-Olivier Méhu
Supporto tecnico e logistico : Manuel Goepfert
Aiuto per la traduzione : Arnaldo La Scala

Contatto : metmap@orbifly.com




FONTI E CREDITI :

   NOAA